sensor_id;sensor_type;location;lat;lon;timestamp;P1;durP1;ratioP1;P2;durP2;ratioP2
68212;SDS011;55035;47.792;8.724;2024-02-26T00:00:52;17.73;;;16.23;;
68212;SDS011;55035;47.792;8.724;2024-02-26T00:03:18;17.70;;;16.20;;
68212;SDS011;55035;47.792;8.724;2024-02-26T00:05:45;16.83;;;15.33;;
68212;SDS011;55035;47.792;8.724;2024-02-26T00:08:13;15.70;;;14.35;;
68212;SDS011;55035;47.792;8.724;2024-02-26T00:10:40;17.37;;;15.97;;
68212;SDS011;55035;47.792;8.724;2024-02-26T00:13:06;16.52;;;15.13;;
68212;SDS011;55035;47.792;8.724;2024-02-26T00:15:34;15.35;;;14.05;;
68212;SDS011;55035;47.792;8.724;2024-02-26T00:18:01;16.65;;;15.25;;
68212;SDS011;55035;47.792;8.724;2024-02-26T00:20:28;17.13;;;15.63;;
68212;SDS011;55035;47.792;8.724;2024-02-26T00:22:54;16.98;;;15.48;;
68212;SDS011;55035;47.792;8.724;2024-02-26T00:25:22;16.88;;;15.48;;
68212;SDS011;55035;47.792;8.724;2024-02-26T00:27:49;16.25;;;14.85;;
68212;SDS011;55035;47.792;8.724;2024-02-26T00:30:15;18.02;;;16.52;;
68212;SDS011;55035;47.792;8.724;2024-02-26T00:32:42;15.73;;;14.40;;
68212;SDS011;55035;47.792;8.724;2024-02-26T00:35:09;16.42;;;15.02;;
68212;SDS011;55035;47.792;8.724;2024-02-26T00:37:36;18.03;;;16.57;;
68212;SDS011;55035;47.792;8.724;2024-02-26T00:40:02;16.10;;;14.70;;
68212;SDS011;55035;47.792;8.724;2024-02-26T00:42:30;15.32;;;14.02;;
68212;SDS011;55035;47.792;8.724;2024-02-26T00:44:57;15.95;;;14.55;;
68212;SDS011;55035;47.792;8.724;2024-02-26T00:47:24;17.33;;;15.93;;
68212;SDS011;55035;47.792;8.724;2024-02-26T00:49:50;17.33;;;15.83;;
68212;SDS011;55035;47.792;8.724;2024-02-26T00:52:17;15.88;;;14.38;;
68212;SDS011;55035;47.792;8.724;2024-02-26T00:54:43;16.63;;;15.23;;
68212;SDS011;55035;47.792;8.724;2024-02-26T00:57:10;16.30;;;14.90;;
68212;SDS011;55035;47.792;8.724;2024-02-26T00:59:38;16.92;;;15.52;;
68212;SDS011;55035;47.792;8.724;2024-02-26T01:02:05;16.17;;;14.77;;
68212;SDS011;55035;47.792;8.724;2024-02-26T01:04:32;16.27;;;14.98;;
68212;SDS011;55035;47.792;8.724;2024-02-26T01:06:59;16.20;;;14.90;;
68212;SDS011;55035;47.792;8.724;2024-02-26T01:09:26;16.58;;;15.25;;
68212;SDS011;55035;47.792;8.724;2024-02-26T01:11:52;16.88;;;15.48;;
68212;SDS011;55035;47.792;8.724;2024-02-26T01:14:19;17.27;;;15.88;;
68212;SDS011;55035;47.792;8.724;2024-02-26T01:16:47;17.20;;;15.90;;
68212;SDS011;55035;47.792;8.724;2024-02-26T01:19:14;15.68;;;14.32;;
68212;SDS011;55035;47.792;8.724;2024-02-26T01:21:40;16.65;;;15.25;;
68212;SDS011;55035;47.792;8.724;2024-02-26T01:24:07;15.75;;;14.45;;
68212;SDS011;55035;47.792;8.724;2024-02-26T01:26:33;16.90;;;15.50;;
68212;SDS011;55035;47.792;8.724;2024-02-26T01:29:00;15.07;;;13.77;;
68212;SDS011;55035;47.792;8.724;2024-02-26T01:31:27;15.53;;;14.23;;
68212;SDS011;55035;47.792;8.724;2024-02-26T01:33:55;14.90;;;13.63;;
68212;SDS011;55035;47.792;8.724;2024-02-26T01:36:21;15.27;;;13.97;;
68212;SDS011;55035;47.792;8.724;2024-02-26T01:38:48;15.77;;;14.48;;
68212;SDS011;55035;47.792;8.724;2024-02-26T01:41:14;16.10;;;14.80;;
68212;SDS011;55035;47.792;8.724;2024-02-26T01:43:41;15.27;;;13.98;;
68212;SDS011;55035;47.792;8.724;2024-02-26T01:46:08;15.30;;;14.00;;
68212;SDS011;55035;47.792;8.724;2024-02-26T01:48:39;15.60;;;14.30;;
68212;SDS011;55035;47.792;8.724;2024-02-26T01:51:07;16.20;;;14.90;;
68212;SDS011;55035;47.792;8.724;2024-02-26T01:53:34;16.50;;;15.15;;
68212;SDS011;55035;47.792;8.724;2024-02-26T01:56:00;16.30;;;15.00;;
68212;SDS011;55035;47.792;8.724;2024-02-26T01:58:28;16.38;;;14.98;;
68212;SDS011;55035;47.792;8.724;2024-02-26T02:00:55;16.05;;;14.63;;
68212;SDS011;55035;47.792;8.724;2024-02-26T02:03:22;14.65;;;13.35;;
68212;SDS011;55035;47.792;8.724;2024-02-26T02:05:49;15.75;;;14.45;;
68212;SDS011;55035;47.792;8.724;2024-02-26T02:08:17;14.00;;;12.80;;
68212;SDS011;55035;47.792;8.724;2024-02-26T02:10:44;16.00;;;14.60;;
68212;SDS011;55035;47.792;8.724;2024-02-26T02:13:13;15.40;;;14.10;;
68212;SDS011;55035;47.792;8.724;2024-02-26T02:15:39;15.73;;;14.43;;
68212;SDS011;55035;47.792;8.724;2024-02-26T02:18:07;15.63;;;14.33;;
68212;SDS011;55035;47.792;8.724;2024-02-26T02:20:35;15.23;;;13.88;;
68212;SDS011;55035;47.792;8.724;2024-02-26T02:23:02;16.10;;;14.80;;
68212;SDS011;55035;47.792;8.724;2024-02-26T02:25:29;14.93;;;13.68;;
68212;SDS011;55035;47.792;8.724;2024-02-26T02:27:55;14.33;;;13.13;;
68212;SDS011;55035;47.792;8.724;2024-02-26T02:30:24;15.53;;;14.27;;
68212;SDS011;55035;47.792;8.724;2024-02-26T02:32:51;15.95;;;14.65;;
68212;SDS011;55035;47.792;8.724;2024-02-26T02:35:18;15.88;;;14.63;;
68212;SDS011;55035;47.792;8.724;2024-02-26T02:37:46;15.30;;;14.10;;
68212;SDS011;55035;47.792;8.724;2024-02-26T02:40:12;16.38;;;15.05;;
68212;SDS011;55035;47.792;8.724;2024-02-26T02:42:39;15.88;;;14.57;;
68212;SDS011;55035;47.792;8.724;2024-02-26T02:45:05;15.55;;;14.35;;
68212;SDS011;55035;47.792;8.724;2024-02-26T02:47:35;14.43;;;13.23;;
68212;SDS011;55035;47.792;8.724;2024-02-26T02:50:02;15.90;;;14.70;;
68212;SDS011;55035;47.792;8.724;2024-02-26T02:52:28;15.77;;;14.48;;
68212;SDS011;55035;47.792;8.724;2024-02-26T02:54:56;17.15;;;15.82;;
68212;SDS011;55035;47.792;8.724;2024-02-26T02:57:23;14.60;;;13.40;;
68212;SDS011;55035;47.792;8.724;2024-02-26T02:59:49;16.17;;;14.90;;
68212;SDS011;55035;47.792;8.724;2024-02-26T03:02:16;15.07;;;13.87;;
68212;SDS011;55035;47.792;8.724;2024-02-26T03:04:43;14.88;;;13.68;;
68212;SDS011;55035;47.792;8.724;2024-02-26T03:07:09;15.48;;;14.23;;
68212;SDS011;55035;47.792;8.724;2024-02-26T03:09:36;14.23;;;13.02;;
68212;SDS011;55035;47.792;8.724;2024-02-26T03:12:04;14.90;;;13.60;;
68212;SDS011;55035;47.792;8.724;2024-02-26T03:14:31;14.90;;;13.60;;
68212;SDS011;55035;47.792;8.724;2024-02-26T03:16:57;15.88;;;14.60;;
68212;SDS011;55035;47.792;8.724;2024-02-26T03:19:24;17.02;;;15.63;;
68212;SDS011;55035;47.792;8.724;2024-02-26T03:21:51;15.25;;;13.85;;
68212;SDS011;55035;47.792;8.724;2024-02-26T03:24:17;19.80;;;18.17;;
68212;SDS011;55035;47.792;8.724;2024-02-26T03:26:44;15.73;;;14.43;;
68212;SDS011;55035;47.792;8.724;2024-02-26T03:29:12;16.27;;;14.95;;
68212;SDS011;55035;47.792;8.724;2024-02-26T03:31:38;14.93;;;13.73;;
68212;SDS011;55035;47.792;8.724;2024-02-26T03:34:05;14.80;;;13.60;;
68212;SDS011;55035;47.792;8.724;2024-02-26T03:36:31;16.30;;;15.00;;
68212;SDS011;55035;47.792;8.724;2024-02-26T03:38:58;15.63;;;14.33;;
68212;SDS011;55035;47.792;8.724;2024-02-26T03:41:25;15.23;;;14.02;;
68212;SDS011;55035;47.792;8.724;2024-02-26T03:43:51;15.38;;;14.18;;
68212;SDS011;55035;47.792;8.724;2024-02-26T03:46:19;14.10;;;12.87;;
68212;SDS011;55035;47.792;8.724;2024-02-26T03:48:46;14.15;;;12.93;;
68212;SDS011;55035;47.792;8.724;2024-02-26T03:51:12;14.20;;;13.10;;
68212;SDS011;55035;47.792;8.724;2024-02-26T03:53:39;13.93;;;12.73;;
68212;SDS011;55035;47.792;8.724;2024-02-26T03:56:06;14.88;;;13.68;;
68212;SDS011;55035;47.792;8.724;2024-02-26T03:58:33;14.38;;;13.18;;
68212;SDS011;55035;47.792;8.724;2024-02-26T04:00:59;15.87;;;14.53;;
68212;SDS011;55035;47.792;8.724;2024-02-26T04:03:28;15.32;;;14.13;;
68212;SDS011;55035;47.792;8.724;2024-02-26T04:05:55;14.90;;;13.67;;
68212;SDS011;55035;47.792;8.724;2024-02-26T04:08:22;15.88;;;14.57;;
68212;SDS011;55035;47.792;8.724;2024-02-26T04:10:48;18.38;;;16.58;;
68212;SDS011;55035;47.792;8.724;2024-02-26T04:13:15;13.97;;;12.77;;
68212;SDS011;55035;47.792;8.724;2024-02-26T04:15:41;13.85;;;12.70;;
68212;SDS011;55035;47.792;8.724;2024-02-26T04:18:08;15.68;;;14.38;;
68212;SDS011;55035;47.792;8.724;2024-02-26T04:20:37;15.35;;;14.10;;
68212;SDS011;55035;47.792;8.724;2024-02-26T04:23:04;16.15;;;14.75;;
68212;SDS011;55035;47.792;8.724;2024-02-26T04:25:31;15.35;;;14.05;;
68212;SDS011;55035;47.792;8.724;2024-02-26T04:27:57;16.08;;;14.77;;
68212;SDS011;55035;47.792;8.724;2024-02-26T04:30:24;14.30;;;13.00;;
68212;SDS011;55035;47.792;8.724;2024-02-26T04:32:50;13.68;;;12.50;;
68212;SDS011;55035;47.792;8.724;2024-02-26T04:35:17;14.90;;;13.70;;
68212;SDS011;55035;47.792;8.724;2024-02-26T04:37:45;13.70;;;12.50;;
68212;SDS011;55035;47.792;8.724;2024-02-26T04:40:12;14.48;;;13.27;;
68212;SDS011;55035;47.792;8.724;2024-02-26T04:42:39;14.50;;;13.30;;
68212;SDS011;55035;47.792;8.724;2024-02-26T04:45:06;13.67;;;12.37;;
68212;SDS011;55035;47.792;8.724;2024-02-26T04:47:33;13.15;;;12.00;;
68212;SDS011;55035;47.792;8.724;2024-02-26T04:50:00;14.38;;;13.18;;
68212;SDS011;55035;47.792;8.724;2024-02-26T04:52:26;13.03;;;11.90;;
68212;SDS011;55035;47.792;8.724;2024-02-26T04:54:54;14.75;;;13.55;;
68212;SDS011;55035;47.792;8.724;2024-02-26T04:57:21;16.80;;;15.50;;
68212;SDS011;55035;47.792;8.724;2024-02-26T04:59:48;13.45;;;12.35;;
68212;SDS011;55035;47.792;8.724;2024-02-26T05:02:15;14.65;;;13.32;;
68212;SDS011;55035;47.792;8.724;2024-02-26T05:04:42;15.30;;;14.10;;
68212;SDS011;55035;47.792;8.724;2024-02-26T05:07:08;14.82;;;13.63;;
68212;SDS011;55035;47.792;8.724;2024-02-26T05:09:35;14.50;;;13.35;;
68212;SDS011;55035;47.792;8.724;2024-02-26T05:12:03;14.75;;;13.45;;
68212;SDS011;55035;47.792;8.724;2024-02-26T05:14:30;13.40;;;12.30;;
68212;SDS011;55035;47.792;8.724;2024-02-26T05:16:57;13.95;;;12.85;;
68212;SDS011;55035;47.792;8.724;2024-02-26T05:19:23;14.90;;;13.70;;
68212;SDS011;55035;47.792;8.724;2024-02-26T05:21:52;13.70;;;12.57;;
68212;SDS011;55035;47.792;8.724;2024-02-26T05:24:18;13.45;;;12.35;;
68212;SDS011;55035;47.792;8.724;2024-02-26T05:26:47;12.48;;;11.40;;
68212;SDS011;55035;47.792;8.724;2024-02-26T05:29:18;14.70;;;13.50;;
68212;SDS011;55035;47.792;8.724;2024-02-26T05:31:45;15.95;;;14.65;;
68212;SDS011;55035;47.792;8.724;2024-02-26T05:34:11;12.73;;;11.63;;
68212;SDS011;55035;47.792;8.724;2024-02-26T05:36:38;13.40;;;12.30;;
68212;SDS011;55035;47.792;8.724;2024-02-26T05:39:05;14.50;;;13.30;;
68212;SDS011;55035;47.792;8.724;2024-02-26T05:41:32;14.82;;;13.50;;
68212;SDS011;55035;47.792;8.724;2024-02-26T05:43:59;15.95;;;14.27;;
68212;SDS011;55035;47.792;8.724;2024-02-26T05:46:26;20.33;;;18.23;;
68212;SDS011;55035;47.792;8.724;2024-02-26T05:48:53;20.55;;;18.40;;
68212;SDS011;55035;47.792;8.724;2024-02-26T05:51:20;17.13;;;15.60;;
68212;SDS011;55035;47.792;8.724;2024-02-26T05:53:46;16.67;;;15.23;;
68212;SDS011;55035;47.792;8.724;2024-02-26T05:56:19;16.13;;;14.82;;
68212;SDS011;55035;47.792;8.724;2024-02-26T05:58:46;15.43;;;14.13;;
68212;SDS011;55035;47.792;8.724;2024-02-26T06:01:12;13.60;;;12.48;;
68212;SDS011;55035;47.792;8.724;2024-02-26T06:03:41;14.02;;;12.82;;
68212;SDS011;55035;47.792;8.724;2024-02-26T06:06:07;14.37;;;13.17;;
68212;SDS011;55035;47.792;8.724;2024-02-26T06:08:34;15.05;;;13.82;;
68212;SDS011;55035;47.792;8.724;2024-02-26T06:11:04;13.40;;;12.20;;
68212;SDS011;55035;47.792;8.724;2024-02-26T06:13:31;14.65;;;13.45;;
68212;SDS011;55035;47.792;8.724;2024-02-26T06:15:57;12.97;;;11.67;;
68212;SDS011;55035;47.792;8.724;2024-02-26T06:18:24;14.27;;;12.98;;
68212;SDS011;55035;47.792;8.724;2024-02-26T06:20:52;15.52;;;14.23;;
68212;SDS011;55035;47.792;8.724;2024-02-26T06:23:20;14.60;;;13.40;;
68212;SDS011;55035;47.792;8.724;2024-02-26T06:25:46;15.23;;;14.03;;
68212;SDS011;55035;47.792;8.724;2024-02-26T06:28:14;18.92;;;16.92;;
68212;SDS011;55035;47.792;8.724;2024-02-26T06:30:40;16.90;;;15.10;;
68212;SDS011;55035;47.792;8.724;2024-02-26T06:33:07;13.77;;;12.60;;
68212;SDS011;55035;47.792;8.724;2024-02-26T06:35:33;13.20;;;12.10;;
68212;SDS011;55035;47.792;8.724;2024-02-26T06:38:01;13.45;;;12.25;;
68212;SDS011;55035;47.792;8.724;2024-02-26T06:40:28;13.65;;;12.45;;
68212;SDS011;55035;47.792;8.724;2024-02-26T06:42:55;13.68;;;12.48;;
68212;SDS011;55035;47.792;8.724;2024-02-26T06:45:21;15.15;;;13.95;;
68212;SDS011;55035;47.792;8.724;2024-02-26T06:47:48;14.15;;;12.95;;
68212;SDS011;55035;47.792;8.724;2024-02-26T06:50:15;15.85;;;14.55;;
68212;SDS011;55035;47.792;8.724;2024-02-26T06:52:43;15.57;;;14.27;;
68212;SDS011;55035;47.792;8.724;2024-02-26T06:55:10;14.68;;;13.38;;
68212;SDS011;55035;47.792;8.724;2024-02-26T06:57:38;14.35;;;13.15;;
68212;SDS011;55035;47.792;8.724;2024-02-26T07:00:05;15.57;;;14.18;;
68212;SDS011;55035;47.792;8.724;2024-02-26T07:02:32;13.98;;;12.75;;
68212;SDS011;55035;47.792;8.724;2024-02-26T07:04:58;15.15;;;13.55;;
68212;SDS011;55035;47.792;8.724;2024-02-26T07:07:25;13.80;;;12.60;;
68212;SDS011;55035;47.792;8.724;2024-02-26T07:09:52;13.20;;;12.00;;
68212;SDS011;55035;47.792;8.724;2024-02-26T07:12:21;12.87;;;11.67;;
68212;SDS011;55035;47.792;8.724;2024-02-26T07:14:47;12.20;;;11.10;;
68212;SDS011;55035;47.792;8.724;2024-02-26T07:17:14;12.27;;;11.10;;
68212;SDS011;55035;47.792;8.724;2024-02-26T07:19:41;13.35;;;12.15;;
68212;SDS011;55035;47.792;8.724;2024-02-26T07:22:08;13.13;;;12.00;;
68212;SDS011;55035;47.792;8.724;2024-02-26T07:24:35;12.30;;;11.20;;
68212;SDS011;55035;47.792;8.724;2024-02-26T07:27:02;12.43;;;11.23;;
68212;SDS011;55035;47.792;8.724;2024-02-26T07:29:30;13.00;;;11.75;;
68212;SDS011;55035;47.792;8.724;2024-02-26T07:31:56;12.20;;;11.10;;
68212;SDS011;55035;47.792;8.724;2024-02-26T07:34:23;12.03;;;10.83;;
68212;SDS011;55035;47.792;8.724;2024-02-26T07:36:54;14.20;;;12.85;;
68212;SDS011;55035;47.792;8.724;2024-02-26T07:39:21;14.93;;;13.73;;
68212;SDS011;55035;47.792;8.724;2024-02-26T07:41:48;14.27;;;12.98;;
68212;SDS011;55035;47.792;8.724;2024-02-26T07:44:16;14.00;;;12.77;;
68212;SDS011;55035;47.792;8.724;2024-02-26T07:46:44;16.05;;;14.75;;
68212;SDS011;55035;47.792;8.724;2024-02-26T07:49:11;16.15;;;14.65;;
68212;SDS011;55035;47.792;8.724;2024-02-26T07:51:38;15.68;;;14.38;;
68212;SDS011;55035;47.792;8.724;2024-02-26T07:54:04;15.30;;;14.00;;
68212;SDS011;55035;47.792;8.724;2024-02-26T07:56:31;14.70;;;13.50;;
68212;SDS011;55035;47.792;8.724;2024-02-26T07:58:58;14.27;;;12.98;;
68212;SDS011;55035;47.792;8.724;2024-02-26T08:01:24;15.13;;;13.73;;
68212;SDS011;55035;47.792;8.724;2024-02-26T08:03:53;12.60;;;11.40;;
68212;SDS011;55035;47.792;8.724;2024-02-26T08:06:19;8.40;;;5.32;;
68212;SDS011;55035;47.792;8.724;2024-02-26T08:08:46;7.65;;;3.05;;
68212;SDS011;55035;47.792;8.724;2024-02-26T08:11:14;6.85;;;1.90;;
68212;SDS011;55035;47.792;8.724;2024-02-26T08:13:40;6.70;;;2.30;;
68212;SDS011;55035;47.792;8.724;2024-02-26T08:16:07;6.75;;;2.40;;
68212;SDS011;55035;47.792;8.724;2024-02-26T08:18:34;7.10;;;2.20;;
68212;SDS011;55035;47.792;8.724;2024-02-26T08:21:02;7.55;;;2.20;;
68212;SDS011;55035;47.792;8.724;2024-02-26T08:23:29;6.10;;;2.25;;
68212;SDS011;55035;47.792;8.724;2024-02-26T08:25:57;6.97;;;2.30;;
68212;SDS011;55035;47.792;8.724;2024-02-26T08:28:24;6.10;;;2.00;;
68212;SDS011;55035;47.792;8.724;2024-02-26T08:30:50;6.13;;;1.90;;
68212;SDS011;55035;47.792;8.724;2024-02-26T08:33:17;6.78;;;1.70;;
68212;SDS011;55035;47.792;8.724;2024-02-26T08:35:43;6.05;;;1.90;;
68212;SDS011;55035;47.792;8.724;2024-02-26T08:38:11;5.72;;;2.00;;
68212;SDS011;55035;47.792;8.724;2024-02-26T08:40:38;7.13;;;2.10;;
68212;SDS011;55035;47.792;8.724;2024-02-26T08:43:04;5.80;;;2.07;;
68212;SDS011;55035;47.792;8.724;2024-02-26T08:45:31;6.00;;;1.90;;
68212;SDS011;55035;47.792;8.724;2024-02-26T08:47:58;7.18;;;2.00;;
68212;SDS011;55035;47.792;8.724;2024-02-26T08:50:25;7.13;;;2.17;;
68212;SDS011;55035;47.792;8.724;2024-02-26T08:52:51;6.13;;;1.80;;
68212;SDS011;55035;47.792;8.724;2024-02-26T08:55:20;6.60;;;2.40;;
68212;SDS011;55035;47.792;8.724;2024-02-26T08:57:46;5.72;;;2.03;;
68212;SDS011;55035;47.792;8.724;2024-02-26T09:00:13;6.25;;;2.10;;
68212;SDS011;55035;47.792;8.724;2024-02-26T09:02:40;7.28;;;2.35;;
68212;SDS011;55035;47.792;8.724;2024-02-26T09:05:09;6.00;;;2.20;;
68212;SDS011;55035;47.792;8.724;2024-02-26T09:07:35;5.55;;;1.95;;
68212;SDS011;55035;47.792;8.724;2024-02-26T09:10:02;6.20;;;2.20;;
68212;SDS011;55035;47.792;8.724;2024-02-26T09:12:31;5.50;;;1.95;;
68212;SDS011;55035;47.792;8.724;2024-02-26T09:14:58;6.20;;;2.60;;
68212;SDS011;55035;47.792;8.724;2024-02-26T09:17:24;6.95;;;2.70;;
68212;SDS011;55035;47.792;8.724;2024-02-26T09:19:51;7.57;;;3.08;;
68212;SDS011;55035;47.792;8.724;2024-02-26T09:22:17;6.90;;;2.70;;
68212;SDS011;55035;47.792;8.724;2024-02-26T09:24:44;7.50;;;3.25;;
68212;SDS011;55035;47.792;8.724;2024-02-26T09:27:11;7.25;;;3.08;;
68212;SDS011;55035;47.792;8.724;2024-02-26T09:29:39;8.05;;;3.13;;
68212;SDS011;55035;47.792;8.724;2024-02-26T09:32:06;7.07;;;2.72;;
68212;SDS011;55035;47.792;8.724;2024-02-26T09:34:32;8.00;;;2.80;;
68212;SDS011;55035;47.792;8.724;2024-02-26T09:36:59;7.45;;;2.50;;
68212;SDS011;55035;47.792;8.724;2024-02-26T09:39:26;7.00;;;2.50;;
68212;SDS011;55035;47.792;8.724;2024-02-26T09:41:53;6.65;;;2.15;;
68212;SDS011;55035;47.792;8.724;2024-02-26T09:44:20;5.88;;;2.38;;
68212;SDS011;55035;47.792;8.724;2024-02-26T09:46:48;6.22;;;1.98;;
68212;SDS011;55035;47.792;8.724;2024-02-26T09:49:16;5.72;;;1.90;;
68212;SDS011;55035;47.792;8.724;2024-02-26T09:51:43;5.67;;;1.80;;
68212;SDS011;55035;47.792;8.724;2024-02-26T09:54:10;5.65;;;1.90;;
68212;SDS011;55035;47.792;8.724;2024-02-26T09:56:38;6.50;;;1.80;;
68212;SDS011;55035;47.792;8.724;2024-02-26T09:59:05;6.13;;;1.90;;
68212;SDS011;55035;47.792;8.724;2024-02-26T10:01:33;5.50;;;1.80;;
68212;SDS011;55035;47.792;8.724;2024-02-26T10:04:01;6.32;;;1.58;;
68212;SDS011;55035;47.792;8.724;2024-02-26T10:06:28;6.00;;;1.70;;
68212;SDS011;55035;47.792;8.724;2024-02-26T10:08:55;5.80;;;1.90;;
68212;SDS011;55035;47.792;8.724;2024-02-26T10:11:24;5.47;;;1.80;;
68212;SDS011;55035;47.792;8.724;2024-02-26T10:13:50;5.80;;;1.90;;
68212;SDS011;55035;47.792;8.724;2024-02-26T10:16:17;5.70;;;1.70;;
68212;SDS011;55035;47.792;8.724;2024-02-26T10:18:47;5.70;;;1.90;;
68212;SDS011;55035;47.792;8.724;2024-02-26T10:21:16;5.70;;;1.60;;
68212;SDS011;55035;47.792;8.724;2024-02-26T10:23:44;5.60;;;1.63;;
68212;SDS011;55035;47.792;8.724;2024-02-26T10:26:11;5.63;;;1.60;;
68212;SDS011;55035;47.792;8.724;2024-02-26T10:28:39;4.78;;;1.48;;
68212;SDS011;55035;47.792;8.724;2024-02-26T10:31:06;5.68;;;1.73;;
68212;SDS011;55035;47.792;8.724;2024-02-26T10:33:33;5.68;;;1.52;;
68212;SDS011;55035;47.792;8.724;2024-02-26T10:36:01;5.50;;;1.35;;
68212;SDS011;55035;47.792;8.724;2024-02-26T10:38:29;5.60;;;1.63;;
68212;SDS011;55035;47.792;8.724;2024-02-26T10:40:55;4.78;;;1.30;;
68212;SDS011;55035;47.792;8.724;2024-02-26T10:43:22;5.30;;;1.38;;
68212;SDS011;55035;47.792;8.724;2024-02-26T10:45:49;5.50;;;1.30;;
68212;SDS011;55035;47.792;8.724;2024-02-26T10:48:15;4.93;;;1.10;;
68212;SDS011;55035;47.792;8.724;2024-02-26T10:50:43;5.20;;;1.20;;
68212;SDS011;55035;47.792;8.724;2024-02-26T10:53:12;8.45;;;2.53;;
68212;SDS011;55035;47.792;8.724;2024-02-26T10:55:41;4.90;;;1.20;;
68212;SDS011;55035;47.792;8.724;2024-02-26T10:58:09;5.53;;;1.40;;
68212;SDS011;55035;47.792;8.724;2024-02-26T11:00:36;5.07;;;1.20;;
68212;SDS011;55035;47.792;8.724;2024-02-26T11:03:04;4.50;;;1.10;;
68212;SDS011;55035;47.792;8.724;2024-02-26T11:05:32;5.17;;;1.27;;
68212;SDS011;55035;47.792;8.724;2024-02-26T11:08:00;5.57;;;1.60;;
68212;SDS011;55035;47.792;8.724;2024-02-26T11:10:27;4.80;;;1.17;;
68212;SDS011;55035;47.792;8.724;2024-02-26T11:12:57;5.55;;;1.60;;
68212;SDS011;55035;47.792;8.724;2024-02-26T11:15:26;7.22;;;1.77;;
68212;SDS011;55035;47.792;8.724;2024-02-26T11:17:52;11.98;;;8.48;;
68212;SDS011;55035;47.792;8.724;2024-02-26T11:20:19;23.27;;;15.77;;
68212;SDS011;55035;47.792;8.724;2024-02-26T11:22:46;27.65;;;22.73;;
68212;SDS011;55035;47.792;8.724;2024-02-26T11:25:12;23.58;;;21.15;;
68212;SDS011;55035;47.792;8.724;2024-02-26T11:27:42;5.32;;;1.75;;
68212;SDS011;55035;47.792;8.724;2024-02-26T11:30:11;5.80;;;1.73;;
68212;SDS011;55035;47.792;8.724;2024-02-26T11:32:39;5.30;;;1.45;;
68212;SDS011;55035;47.792;8.724;2024-02-26T11:35:06;5.30;;;1.93;;
68212;SDS011;55035;47.792;8.724;2024-02-26T11:37:35;5.32;;;1.85;;
68212;SDS011;55035;47.792;8.724;2024-02-26T11:40:02;5.20;;;1.60;;
68212;SDS011;55035;47.792;8.724;2024-02-26T11:42:29;5.82;;;1.55;;
68212;SDS011;55035;47.792;8.724;2024-02-26T11:44:56;18.47;;;16.63;;
68212;SDS011;55035;47.792;8.724;2024-02-26T11:47:26;6.00;;;1.90;;
68212;SDS011;55035;47.792;8.724;2024-02-26T11:49:53;5.00;;;1.70;;
68212;SDS011;55035;47.792;8.724;2024-02-26T11:52:20;5.72;;;2.13;;
68212;SDS011;55035;47.792;8.724;2024-02-26T11:54:47;5.93;;;1.88;;
68212;SDS011;55035;47.792;8.724;2024-02-26T11:57:21;7.10;;;2.40;;
68212;SDS011;55035;47.792;8.724;2024-02-26T11:59:48;7.70;;;2.30;;
68212;SDS011;55035;47.792;8.724;2024-02-26T12:04:59;6.80;;;2.25;;
68212;SDS011;55035;47.792;8.724;2024-02-26T12:07:25;5.97;;;2.10;;
68212;SDS011;55035;47.792;8.724;2024-02-26T12:09:52;6.20;;;2.20;;
68212;SDS011;55035;47.792;8.724;2024-02-26T12:12:19;7.00;;;2.33;;
68212;SDS011;55035;47.792;8.724;2024-02-26T12:14:50;6.90;;;2.60;;
68212;SDS011;55035;47.792;8.724;2024-02-26T12:17:19;6.53;;;2.40;;
68212;SDS011;55035;47.792;8.724;2024-02-26T12:19:45;6.25;;;2.40;;
68212;SDS011;55035;47.792;8.724;2024-02-26T12:22:13;6.80;;;2.55;;
68212;SDS011;55035;47.792;8.724;2024-02-26T12:24:41;6.57;;;2.60;;
68212;SDS011;55035;47.792;8.724;2024-02-26T12:27:08;6.82;;;2.70;;
68212;SDS011;55035;47.792;8.724;2024-02-26T12:29:34;6.45;;;2.50;;
68212;SDS011;55035;47.792;8.724;2024-02-26T12:32:01;7.18;;;2.22;;
68212;SDS011;55035;47.792;8.724;2024-02-26T12:34:28;8.00;;;2.50;;
68212;SDS011;55035;47.792;8.724;2024-02-26T12:36:56;6.95;;;2.33;;
68212;SDS011;55035;47.792;8.724;2024-02-26T12:39:25;6.80;;;2.58;;
68212;SDS011;55035;47.792;8.724;2024-02-26T12:41:51;6.83;;;2.70;;
68212;SDS011;55035;47.792;8.724;2024-02-26T12:44:18;5.88;;;2.45;;
68212;SDS011;55035;47.792;8.724;2024-02-26T12:46:45;7.35;;;2.60;;
68212;SDS011;55035;47.792;8.724;2024-02-26T12:49:14;6.80;;;2.47;;
68212;SDS011;55035;47.792;8.724;2024-02-26T12:51:41;6.63;;;2.40;;
68212;SDS011;55035;47.792;8.724;2024-02-26T12:54:08;6.50;;;2.78;;
68212;SDS011;55035;47.792;8.724;2024-02-26T12:56:36;7.77;;;2.70;;
68212;SDS011;55035;47.792;8.724;2024-02-26T12:59:03;6.97;;;2.80;;
68212;SDS011;55035;47.792;8.724;2024-02-26T13:01:30;7.10;;;2.60;;
68212;SDS011;55035;47.792;8.724;2024-02-26T13:03:58;6.88;;;2.70;;
68212;SDS011;55035;47.792;8.724;2024-02-26T13:06:26;7.47;;;2.60;;
68212;SDS011;55035;47.792;8.724;2024-02-26T13:08:56;6.83;;;2.70;;
68212;SDS011;55035;47.792;8.724;2024-02-26T13:11:23;7.88;;;2.90;;
68212;SDS011;55035;47.792;8.724;2024-02-26T13:13:51;6.63;;;2.80;;
68212;SDS011;55035;47.792;8.724;2024-02-26T13:16:18;6.32;;;2.95;;
68212;SDS011;55035;47.792;8.724;2024-02-26T13:18:45;7.80;;;3.10;;
68212;SDS011;55035;47.792;8.724;2024-02-26T13:21:13;7.45;;;2.92;;
68212;SDS011;55035;47.792;8.724;2024-02-26T13:23:41;8.27;;;3.20;;
68212;SDS011;55035;47.792;8.724;2024-02-26T13:26:11;8.85;;;2.90;;
68212;SDS011;55035;47.792;8.724;2024-02-26T13:28:39;6.88;;;2.80;;
68212;SDS011;55035;47.792;8.724;2024-02-26T13:31:07;7.38;;;2.70;;
68212;SDS011;55035;47.792;8.724;2024-02-26T13:33:34;7.53;;;2.90;;
68212;SDS011;55035;47.792;8.724;2024-02-26T13:36:02;7.07;;;2.97;;
68212;SDS011;55035;47.792;8.724;2024-02-26T13:38:29;6.85;;;2.65;;
68212;SDS011;55035;47.792;8.724;2024-02-26T13:40:55;6.90;;;2.87;;
68212;SDS011;55035;47.792;8.724;2024-02-26T13:43:22;7.75;;;3.20;;
68212;SDS011;55035;47.792;8.724;2024-02-26T13:45:49;7.45;;;2.90;;
68212;SDS011;55035;47.792;8.724;2024-02-26T13:48:17;7.70;;;3.50;;
68212;SDS011;55035;47.792;8.724;2024-02-26T13:50:44;7.37;;;3.13;;
68212;SDS011;55035;47.792;8.724;2024-02-26T13:53:11;6.88;;;2.80;;
68212;SDS011;55035;47.792;8.724;2024-02-26T13:55:39;7.88;;;3.03;;
68212;SDS011;55035;47.792;8.724;2024-02-26T13:58:07;6.55;;;2.60;;
68212;SDS011;55035;47.792;8.724;2024-02-26T14:00:36;6.60;;;3.05;;
68212;SDS011;55035;47.792;8.724;2024-02-26T14:03:06;6.28;;;2.58;;
68212;SDS011;55035;47.792;8.724;2024-02-26T14:05:34;7.43;;;2.88;;
68212;SDS011;55035;47.792;8.724;2024-02-26T14:08:01;7.60;;;2.80;;
68212;SDS011;55035;47.792;8.724;2024-02-26T14:10:28;6.28;;;2.70;;
68212;SDS011;55035;47.792;8.724;2024-02-26T14:12:55;6.90;;;2.70;;
68212;SDS011;55035;47.792;8.724;2024-02-26T14:15:22;6.63;;;2.40;;
68212;SDS011;55035;47.792;8.724;2024-02-26T14:17:49;7.53;;;2.60;;
68212;SDS011;55035;47.792;8.724;2024-02-26T14:20:19;7.00;;;2.93;;
68212;SDS011;55035;47.792;8.724;2024-02-26T14:22:47;7.07;;;2.95;;
68212;SDS011;55035;47.792;8.724;2024-02-26T14:25:14;6.93;;;2.70;;
68212;SDS011;55035;47.792;8.724;2024-02-26T14:27:41;7.97;;;2.97;;
68212;SDS011;55035;47.792;8.724;2024-02-26T14:30:08;6.70;;;2.78;;
68212;SDS011;55035;47.792;8.724;2024-02-26T14:32:34;7.85;;;2.95;;
68212;SDS011;55035;47.792;8.724;2024-02-26T14:35:04;8.33;;;3.03;;